EFKK/KOK METAR and TAF weather

Enter ICAO airport designator
Station Type Date Time Source
EFKK METAR 2024/06/16 08:20 UTC NOAA

EFKK 160820Z AUTO 17010KT 140V200 CAVOK 19/08 Q1015


Station Type Date Time Source
EFKK Decoded METAR 2024/06/16 08:20 UTC NOAA

Kruunupyy, Finland (EFKK) 63-43N 023-09E
Jun 16, 2024 - 04:20 AM EDT / 2024.06.16 0820 UTC
Wind: from the S (170 degrees) at 12 MPH (10 KT) (direction variable):0
Visibility: greater than 7 mile(s):0
Temperature: 66 F (19 C)
Dew Point: 46 F (8 C)
Relative Humidity: 48%
Pressure (altimeter): 29.97 in. Hg (1015 hPa)
ob: EFKK 160820Z AUTO 17010KT 140V200 CAVOK 19/08 Q1015
cycle: 8

Station Type Date Time Source
EFKK TAF 2019/04/22 21:42 UTC NOAA